createdAt,value
2019-06-26T00:01:39.091Z,8.38
2019-06-26T00:04:05.401Z,4.95
2019-06-26T00:06:31.770Z,5.28
2019-06-26T00:08:57.813Z,6.55
2019-06-26T00:11:23.998Z,5.22
2019-06-26T00:13:50.056Z,6.67
2019-06-26T00:16:16.282Z,6.00
2019-06-26T00:18:42.479Z,5.58
2019-06-26T00:21:09.691Z,12.20
2019-06-26T00:23:35.714Z,5.70
2019-06-26T00:26:02.052Z,5.72
2019-06-26T00:28:28.100Z,4.97
2019-06-26T00:30:54.157Z,5.30
2019-06-26T00:33:20.592Z,5.90
2019-06-26T00:35:47.027Z,5.45
2019-06-26T00:38:13.080Z,5.90
2019-06-26T00:40:39.241Z,5.47
2019-06-26T00:43:06.342Z,5.50
2019-06-26T00:45:32.513Z,5.80
2019-06-26T00:47:58.558Z,5.75
2019-06-26T00:50:24.689Z,5.60
2019-06-26T00:52:50.833Z,5.65
2019-06-26T00:55:16.947Z,6.47
2019-06-26T00:57:43.189Z,6.42
2019-06-26T01:00:10.259Z,5.65
2019-06-26T01:02:36.986Z,5.30
2019-06-26T01:05:07.560Z,6.00
2019-06-26T01:07:33.852Z,6.33
2019-06-26T01:10:00.037Z,6.55
2019-06-26T01:12:26.176Z,6.70
2019-06-26T01:14:52.286Z,6.42
2019-06-26T01:17:18.295Z,6.42
2019-06-26T01:19:45.619Z,6.00
2019-06-26T01:22:11.731Z,6.53
2019-06-26T01:24:37.815Z,6.67
2019-06-26T01:27:04.001Z,6.30
2019-06-26T01:29:32.624Z,6.30
2019-06-26T01:31:58.253Z,6.72
2019-06-26T01:34:24.411Z,6.17
2019-06-26T01:36:50.477Z,6.33
2019-06-26T01:39:16.883Z,6.65
2019-06-26T01:41:42.897Z,6.05
2019-06-26T01:44:14.853Z,6.58
2019-06-26T01:46:37.104Z,6.33
2019-06-26T01:49:03.496Z,6.62
2019-06-26T01:51:29.612Z,6.50
2019-06-26T01:53:55.721Z,6.83
2019-06-26T01:56:21.822Z,6.53
2019-06-26T01:58:47.845Z,6.22
2019-06-26T02:01:13.901Z,6.28
2019-06-26T02:03:40.122Z,6.60
2019-06-26T02:06:06.269Z,6.45
2019-06-26T02:08:32.348Z,7.22
2019-06-26T02:10:58.624Z,6.28
2019-06-26T02:13:24.679Z,7.50
2019-06-26T02:15:50.798Z,6.20
2019-06-26T02:18:18.450Z,7.90
2019-06-26T02:20:44.502Z,6.67
2019-06-26T02:23:11.626Z,6.37
2019-06-26T02:25:37.686Z,6.53
2019-06-26T02:28:03.732Z,6.53
2019-06-26T02:30:29.876Z,6.72
2019-06-26T02:32:55.926Z,6.37
2019-06-26T02:35:21.975Z,6.50
2019-06-26T02:37:48.010Z,7.03
2019-06-26T02:40:14.874Z,6.45
2019-06-26T02:42:40.930Z,8.15
2019-06-26T02:45:07.287Z,6.70
2019-06-26T02:47:33.696Z,6.97
2019-06-26T02:49:59.849Z,7.60
2019-06-26T02:52:25.971Z,6.70
2019-06-26T02:54:52.412Z,6.62
2019-06-26T02:57:18.428Z,7.50
2019-06-26T02:59:44.432Z,6.85
2019-06-26T03:02:10.475Z,7.58
2019-06-26T03:04:36.720Z,7.55
2019-06-26T03:07:02.873Z,6.95
2019-06-26T03:09:28.926Z,7.12
2019-06-26T03:11:55.084Z,6.83
2019-06-26T03:14:21.098Z,7.72
2019-06-26T03:16:47.152Z,7.83
2019-06-26T03:19:13.261Z,7.20
2019-06-26T03:21:40.409Z,7.42
2019-06-26T03:24:06.438Z,6.85
2019-06-26T03:26:32.574Z,11.08
2019-06-26T03:28:58.587Z,9.33
2019-06-26T03:31:24.850Z,9.75
2019-06-26T03:33:50.921Z,10.93
2019-06-26T03:36:16.992Z,7.45
2019-06-26T03:38:43.182Z,9.13
2019-06-26T03:41:09.234Z,9.20
2019-06-26T03:43:35.747Z,9.55
2019-06-26T03:46:02.059Z,8.70
2019-06-26T03:48:28.071Z,6.83
2019-06-26T03:50:54.189Z,7.33
2019-06-26T03:53:20.242Z,8.03
2019-06-26T03:55:46.362Z,6.72
2019-06-26T03:58:12.535Z,11.97
2019-06-26T04:00:42.262Z,9.50
2019-06-26T04:03:08.806Z,8.85
2019-06-26T04:05:35.605Z,15.00
2019-06-26T04:08:01.909Z,12.78
2019-06-26T04:10:27.965Z,11.95
2019-06-26T04:12:53.991Z,10.18
2019-06-26T04:15:20.181Z,7.28
2019-06-26T04:17:46.348Z,9.13
2019-06-26T04:20:12.776Z,7.03
2019-06-26T04:22:39.096Z,6.75
2019-06-26T04:25:06.385Z,6.37
2019-06-26T04:27:32.586Z,9.00
2019-06-26T04:29:58.961Z,6.95
2019-06-26T04:32:26.133Z,6.03
2019-06-26T04:34:54.483Z,5.83
2019-06-26T04:37:20.300Z,7.03
2019-06-26T04:39:46.309Z,5.97
2019-06-26T04:42:12.312Z,6.05
2019-06-26T04:44:38.549Z,5.47
2019-06-26T04:47:04.797Z,6.78
2019-06-26T04:49:31.012Z,6.45
2019-06-26T04:51:57.051Z,5.50
2019-06-26T04:54:23.203Z,5.83
2019-06-26T04:56:49.439Z,5.58
2019-06-26T04:59:15.482Z,5.90
2019-06-26T05:01:41.602Z,5.08
2019-06-26T05:04:07.629Z,6.30
2019-06-26T05:06:33.669Z,5.33
2019-06-26T05:08:59.672Z,5.65
2019-06-26T05:11:25.935Z,5.78
2019-06-26T05:13:52.097Z,5.50
2019-06-26T05:16:20.471Z,5.25
2019-06-26T05:18:46.334Z,6.00
2019-06-26T05:21:12.990Z,5.87
2019-06-26T05:23:43.324Z,5.47
2019-06-26T05:26:09.442Z,7.47
2019-06-26T05:28:35.544Z,5.42
2019-06-26T05:31:01.738Z,5.28
2019-06-26T05:33:27.802Z,5.28
2019-06-26T05:35:53.988Z,4.80
2019-06-26T05:38:19.997Z,4.97
2019-06-26T05:40:46.122Z,6.42
2019-06-26T05:43:12.138Z,5.40
2019-06-26T05:45:38.280Z,5.33
2019-06-26T05:48:04.564Z,5.37
2019-06-26T05:50:30.732Z,8.63
2019-06-26T05:52:56.784Z,7.15
2019-06-26T05:55:22.890Z,5.35
2019-06-26T05:57:48.933Z,6.25
2019-06-26T06:00:15.850Z,5.83
2019-06-26T06:02:41.916Z,5.15
2019-06-26T06:05:08.530Z,6.25
2019-06-26T06:07:34.678Z,5.60
2019-06-26T06:10:00.989Z,6.60
2019-06-26T06:12:27.145Z,5.40
2019-06-26T06:14:53.149Z,6.00
2019-06-26T06:17:19.226Z,6.55
2019-06-26T06:19:45.729Z,5.62
2019-06-26T06:22:11.977Z,5.28
2019-06-26T06:24:38.013Z,7.65
2019-06-26T06:27:04.241Z,5.12
2019-06-26T06:29:31.021Z,5.40
2019-06-26T06:31:57.198Z,6.17
2019-06-26T06:34:23.298Z,5.22
2019-06-26T06:36:49.511Z,5.78
2019-06-26T06:39:15.544Z,8.10
2019-06-26T06:41:43.446Z,5.17
2019-06-26T06:44:09.609Z,5.03
2019-06-26T06:46:35.612Z,5.37
2019-06-26T06:49:01.684Z,5.65
2019-06-26T06:51:27.867Z,5.50
2019-06-26T06:53:54.194Z,5.03
2019-06-26T06:56:20.422Z,5.35
2019-06-26T06:58:46.477Z,5.00
2019-06-26T07:01:12.666Z,5.10
2019-06-26T07:03:38.698Z,5.33
2019-06-26T07:06:04.814Z,5.40
2019-06-26T07:08:30.981Z,4.78
2019-06-26T07:10:57.458Z,5.40
2019-06-26T07:13:23.505Z,5.10
2019-06-26T07:15:49.843Z,5.10
2019-06-26T07:18:16.091Z,5.22
2019-06-26T07:20:44.573Z,5.17
2019-06-26T07:23:10.296Z,6.10
2019-06-26T07:25:36.380Z,5.03
2019-06-26T07:28:02.808Z,5.20
2019-06-26T07:30:28.987Z,5.17
2019-06-26T07:32:55.105Z,5.37
2019-06-26T07:35:21.292Z,5.25
2019-06-26T07:37:47.551Z,6.37
2019-06-26T07:40:14.097Z,5.70
2019-06-26T07:42:40.137Z,5.65
2019-06-26T07:45:07.368Z,5.33
2019-06-26T07:47:43.028Z,5.40
2019-06-26T07:50:01.568Z,6.15
2019-06-26T07:52:27.769Z,5.78
2019-06-26T07:54:53.944Z,6.37
2019-06-26T07:57:20.009Z,5.60
2019-06-26T07:59:46.119Z,5.83
2019-06-26T08:02:12.187Z,5.78
2019-06-26T08:04:38.226Z,6.50
2019-06-26T08:07:04.443Z,5.08
2019-06-26T08:09:30.501Z,5.58
2019-06-26T08:11:56.508Z,5.85
2019-06-26T08:14:22.540Z,5.35
2019-06-26T08:16:48.657Z,7.45
2019-06-26T08:19:14.698Z,6.28
2019-06-26T08:21:40.841Z,7.85
2019-06-26T08:24:06.855Z,5.90
2019-06-26T08:26:33.136Z,7.83
2019-06-26T08:28:59.272Z,6.67
2019-06-26T08:31:25.555Z,8.85
2019-06-26T08:33:51.854Z,6.47
2019-06-26T08:36:19.515Z,6.20
2019-06-26T08:38:45.702Z,6.90
2019-06-26T08:41:11.985Z,6.40
2019-06-26T08:43:38.067Z,7.95
2019-06-26T08:46:04.233Z,7.55
2019-06-26T08:48:39.404Z,6.72
2019-06-26T08:50:58.713Z,6.08
2019-06-26T08:53:24.889Z,6.58
2019-06-26T08:55:51.000Z,6.40
2019-06-26T08:58:17.102Z,6.58
2019-06-26T09:00:44.117Z,6.00
2019-06-26T09:03:10.183Z,6.83
2019-06-26T09:05:47.367Z,6.85
2019-06-26T09:08:04.454Z,6.40
2019-06-26T09:10:30.711Z,6.92
2019-06-26T09:12:56.769Z,6.95
2019-06-26T09:15:22.773Z,8.20
2019-06-26T09:17:48.887Z,6.60
2019-06-26T09:20:18.842Z,6.50
2019-06-26T09:22:44.804Z,6.33
2019-06-26T09:25:21.831Z,9.65
2019-06-26T09:27:39.607Z,6.78
2019-06-26T09:30:06.431Z,7.05
2019-06-26T09:32:32.498Z,7.45
2019-06-26T09:34:58.792Z,7.05
2019-06-26T09:37:24.823Z,6.85
2019-06-26T09:39:50.973Z,7.17
2019-06-26T09:42:19.572Z,6.58
2019-06-26T09:44:44.924Z,6.15
2019-06-26T09:47:11.125Z,6.08
2019-06-26T09:49:37.134Z,8.20
2019-06-26T09:52:03.535Z,6.70
2019-06-26T09:54:29.670Z,6.92
2019-06-26T09:56:55.773Z,6.25
2019-06-26T09:59:21.803Z,5.75
2019-06-26T10:01:47.839Z,6.58
2019-06-26T10:04:14.347Z,6.37
2019-06-26T10:06:40.553Z,6.28
2019-06-26T10:09:06.950Z,7.37
2019-06-26T10:11:33.347Z,6.95
2019-06-26T10:13:59.404Z,7.47
2019-06-26T10:16:25.909Z,7.80
2019-06-26T10:19:08.670Z,7.90
2019-06-26T10:21:23.519Z,5.80
2019-06-26T10:23:48.204Z,5.70
2019-06-26T10:26:14.356Z,6.17
2019-06-26T10:28:40.519Z,6.03
2019-06-26T10:31:06.778Z,6.10
2019-06-26T10:33:32.935Z,7.80
2019-06-26T10:35:58.970Z,8.53
2019-06-26T10:38:25.166Z,7.95
2019-06-26T10:40:52.257Z,7.47
2019-06-26T10:43:18.580Z,6.85
2019-06-26T10:45:46.357Z,7.50
2019-06-26T10:48:12.439Z,5.50
2019-06-26T10:50:49.935Z,6.33
2019-06-26T10:53:07.625Z,7.70
2019-06-26T10:55:33.941Z,6.87
2019-06-26T10:58:00.116Z,7.10
2019-06-26T11:00:27.385Z,5.83
2019-06-26T11:02:53.434Z,5.90
2019-06-26T11:05:20.010Z,6.22
2019-06-26T11:07:46.057Z,6.45
2019-06-26T11:10:12.973Z,7.15
2019-06-26T11:12:39.233Z,6.08
2019-06-26T11:15:06.533Z,6.40
2019-06-26T11:17:32.740Z,6.30
2019-06-26T11:19:58.776Z,7.40
2019-06-26T11:22:24.932Z,7.75
2019-06-26T11:24:50.997Z,8.83
2019-06-26T11:27:17.113Z,8.55
2019-06-26T11:29:43.177Z,6.60
2019-06-26T11:32:09.729Z,7.40
2019-06-26T11:34:36.405Z,6.45
2019-06-26T11:37:04.098Z,7.97
2019-06-26T11:39:30.532Z,5.92
2019-06-26T11:41:56.711Z,7.03
2019-06-26T11:44:22.966Z,6.62
2019-06-26T11:46:49.224Z,7.10
2019-06-26T11:49:15.507Z,6.78
2019-06-26T11:51:41.507Z,10.48
2019-06-26T11:54:07.708Z,7.95
2019-06-26T11:56:33.709Z,6.67
2019-06-26T11:58:59.750Z,5.30
2019-06-26T12:01:25.754Z,6.83
2019-06-26T12:03:52.004Z,8.68
2019-06-26T12:06:19.360Z,9.08
2019-06-26T12:08:45.688Z,8.18
2019-06-26T12:11:11.809Z,10.68
2019-06-26T12:13:38.096Z,7.67
2019-06-26T12:16:04.350Z,6.03
2019-06-26T12:18:30.677Z,7.72
2019-06-26T12:20:56.801Z,11.73
2019-06-26T12:23:22.872Z,9.28
2019-06-26T12:25:49.128Z,8.45
2019-06-26T12:28:15.336Z,6.55
2019-06-26T12:30:41.514Z,5.90
2019-06-26T12:33:07.721Z,6.83
2019-06-26T12:35:33.837Z,7.22
2019-06-26T12:38:00.498Z,8.25
2019-06-26T12:40:26.498Z,8.78
2019-06-26T12:42:55.717Z,10.10
2019-06-26T12:45:22.186Z,9.00
2019-06-26T12:47:48.236Z,9.38
2019-06-26T12:50:16.530Z,5.78
2019-06-26T12:52:42.696Z,6.85
2019-06-26T12:55:09.457Z,9.18
2019-06-26T12:57:35.866Z,7.92
2019-06-26T13:00:04.847Z,10.45
2019-06-26T13:02:31.043Z,8.65
2019-06-26T13:04:57.083Z,6.53
2019-06-26T13:07:23.134Z,10.50
2019-06-26T13:09:49.195Z,7.55
2019-06-26T13:12:15.333Z,6.47
2019-06-26T13:14:41.585Z,8.13
2019-06-26T13:17:08.832Z,6.55
2019-06-26T13:19:34.941Z,6.15
2019-06-26T13:22:02.247Z,8.48
2019-06-26T13:24:34.072Z,7.67
2019-06-26T13:27:00.202Z,7.30
2019-06-26T13:29:26.250Z,9.23
2019-06-26T13:31:52.407Z,7.25
2019-06-26T13:34:18.516Z,10.18
2019-06-26T13:36:44.592Z,7.65
2019-06-26T13:39:10.709Z,6.80
2019-06-26T13:41:36.707Z,7.92
2019-06-26T13:44:02.858Z,9.10
2019-06-26T13:46:28.909Z,10.85
2019-06-26T13:48:54.977Z,8.20
2019-06-26T13:51:21.758Z,8.75
2019-06-26T13:53:48.343Z,9.50
2019-06-26T13:56:14.406Z,6.40
2019-06-26T13:58:40.795Z,8.20
2019-06-26T14:01:06.964Z,11.28
2019-06-26T14:03:33.159Z,8.63
2019-06-26T14:05:59.215Z,10.50
2019-06-26T14:08:25.421Z,9.05
2019-06-26T14:10:51.704Z,7.70
2019-06-26T14:13:17.707Z,8.58
2019-06-26T14:15:43.751Z,9.68
2019-06-26T14:18:10.948Z,5.80
2019-06-26T14:20:37.016Z,6.00
2019-06-26T14:23:03.401Z,11.20
2019-06-26T14:25:29.468Z,7.75
2019-06-26T14:27:55.468Z,12.45
2019-06-26T14:30:21.773Z,10.38
2019-06-26T14:32:48.045Z,9.18
2019-06-26T14:35:14.388Z,9.55
2019-06-26T14:37:40.560Z,7.85
2019-06-26T14:40:06.999Z,7.45
2019-06-26T14:42:33.469Z,10.43
2019-06-26T14:44:59.782Z,10.10
2019-06-26T14:47:25.794Z,11.95
2019-06-26T14:49:51.863Z,9.50
2019-06-26T14:52:18.000Z,11.12
2019-06-26T14:54:44.037Z,8.55
2019-06-26T14:57:10.036Z,12.30
2019-06-26T14:59:36.078Z,8.45
2019-06-26T15:02:02.499Z,8.55
2019-06-26T15:04:28.833Z,13.10
2019-06-26T15:06:54.847Z,9.60
2019-06-26T15:09:20.882Z,12.53
2019-06-26T15:11:46.936Z,7.97
2019-06-26T15:14:13.158Z,8.38
2019-06-26T15:16:39.310Z,11.10
2019-06-26T15:19:05.431Z,10.43
2019-06-26T15:21:31.483Z,8.10
2019-06-26T15:23:57.790Z,9.30
2019-06-26T15:26:23.853Z,10.43
2019-06-26T15:28:49.865Z,8.60
2019-06-26T15:31:15.906Z,8.23
2019-06-26T15:33:42.225Z,7.30
2019-06-26T15:36:08.274Z,7.58
2019-06-26T15:38:34.284Z,7.85
2019-06-26T15:41:00.295Z,9.65
2019-06-26T15:43:26.336Z,8.18
2019-06-26T15:45:52.529Z,11.38
2019-06-26T15:48:18.574Z,8.75
2019-06-26T15:50:44.590Z,6.35
2019-06-26T15:53:10.922Z,8.38
2019-06-26T15:55:37.065Z,9.73
2019-06-26T15:58:03.198Z,7.12
2019-06-26T16:00:29.324Z,9.05
2019-06-26T16:02:55.531Z,7.12
2019-06-26T16:05:21.558Z,7.70
2019-06-26T16:07:47.575Z,7.05
2019-06-26T16:10:13.923Z,8.40
2019-06-26T16:12:40.133Z,10.35
2019-06-26T16:15:06.954Z,6.62
2019-06-26T16:17:32.953Z,7.28
2019-06-26T16:19:59.090Z,6.50
2019-06-26T16:22:32.138Z,7.70
2019-06-26T16:24:53.417Z,9.05
2019-06-26T16:27:19.811Z,6.97
2019-06-26T16:29:48.549Z,11.30
2019-06-26T16:32:13.875Z,7.33
2019-06-26T16:34:40.037Z,7.28
2019-06-26T16:37:07.178Z,10.45
2019-06-26T16:39:33.216Z,7.45
2019-06-26T16:41:59.367Z,9.18
2019-06-26T16:44:25.742Z,7.75
2019-06-26T16:46:52.426Z,7.80
2019-06-26T16:49:18.665Z,7.58
2019-06-26T16:51:47.479Z,7.33
2019-06-26T16:54:13.529Z,10.93
2019-06-26T16:56:40.729Z,8.85
2019-06-26T16:59:07.113Z,8.98
2019-06-26T17:01:33.220Z,7.37
2019-06-26T17:03:59.382Z,8.38
2019-06-26T17:06:25.469Z,10.88
2019-06-26T17:08:51.517Z,8.63
2019-06-26T17:11:17.532Z,8.45
2019-06-26T17:13:43.822Z,9.45
2019-06-26T17:16:09.961Z,10.15
2019-06-26T17:18:36.239Z,9.28
2019-06-26T17:21:02.444Z,8.18
2019-06-26T17:23:28.564Z,8.23
2019-06-26T17:25:54.570Z,8.03
2019-06-26T17:28:22.086Z,8.23
2019-06-26T17:30:48.355Z,8.35
2019-06-26T17:33:14.518Z,7.45
2019-06-26T17:35:40.637Z,12.23
2019-06-26T17:38:06.693Z,12.25
2019-06-26T17:40:32.750Z,9.75
2019-06-26T17:43:11.743Z,7.03
2019-06-26T17:45:26.746Z,7.80
2019-06-26T17:47:52.852Z,7.92
2019-06-26T17:50:19.221Z,9.60
2019-06-26T17:52:45.774Z,8.58
2019-06-26T17:55:13.547Z,8.43
2019-06-26T17:57:40.674Z,10.45
2019-06-26T18:00:09.720Z,9.58
2019-06-26T18:02:37.880Z,8.15
2019-06-26T18:05:05.211Z,6.92
2019-06-26T18:07:31.601Z,6.80
2019-06-26T18:09:57.609Z,7.28
2019-06-26T18:12:23.676Z,7.92
2019-06-26T18:14:49.669Z,7.03
2019-06-26T18:17:22.081Z,7.25
2019-06-26T18:19:43.957Z,6.92
2019-06-26T18:22:10.158Z,10.40
2019-06-26T18:24:36.273Z,7.22
2019-06-26T18:27:02.650Z,7.22
2019-06-26T18:29:28.717Z,6.95
2019-06-26T18:31:56.118Z,9.45
2019-06-26T18:34:22.421Z,7.30
2019-06-26T18:36:48.551Z,6.65
2019-06-26T18:39:14.831Z,7.80
2019-06-26T18:41:40.901Z,7.60
2019-06-26T18:44:07.141Z,10.53
2019-06-26T18:46:33.271Z,8.03
2019-06-26T18:48:59.561Z,7.62
2019-06-26T18:51:25.858Z,8.15
2019-06-26T18:53:53.845Z,7.30
2019-06-26T18:56:21.236Z,9.40
2019-06-26T18:58:47.367Z,6.85
2019-06-26T19:01:13.600Z,6.65
2019-06-26T19:03:39.786Z,7.20
2019-06-26T19:06:05.821Z,7.17
2019-06-26T19:08:31.833Z,6.90
2019-06-26T19:10:57.886Z,7.67
2019-06-26T19:13:23.951Z,6.90
2019-06-26T19:15:50.055Z,8.13
2019-06-26T19:18:16.198Z,7.40
2019-06-26T19:20:42.284Z,6.50
2019-06-26T19:23:08.442Z,6.97
2019-06-26T19:25:34.464Z,6.87
2019-06-26T19:28:00.513Z,5.55
2019-06-26T19:30:26.587Z,6.20
2019-06-26T19:32:53.138Z,6.60
2019-06-26T19:35:20.242Z,6.03
2019-06-26T19:37:46.599Z,6.70
2019-06-26T19:40:13.251Z,7.15
2019-06-26T19:42:39.401Z,6.67
2019-06-26T19:45:07.179Z,6.97
2019-06-26T19:47:33.221Z,7.62
2019-06-26T19:49:59.275Z,8.60
2019-06-26T19:52:25.316Z,9.58
2019-06-26T19:54:51.458Z,9.90
2019-06-26T19:57:17.515Z,11.55
2019-06-26T19:59:43.571Z,11.08
2019-06-26T20:02:09.734Z,10.63
2019-06-26T20:04:35.818Z,10.90
2019-06-26T20:07:02.019Z,10.72
2019-06-26T20:09:28.068Z,10.13
2019-06-26T20:11:54.125Z,9.18
2019-06-26T20:14:20.170Z,9.30
2019-06-26T20:16:46.244Z,8.35
2019-06-26T20:19:13.496Z,8.03
2019-06-26T20:21:39.728Z,8.48
2019-06-26T20:24:06.903Z,8.33
2019-06-26T20:26:32.997Z,8.40
2019-06-26T20:28:59.017Z,8.38
2019-06-26T20:31:25.196Z,8.03
2019-06-26T20:33:51.605Z,10.15
2019-06-26T20:36:17.643Z,8.25
2019-06-26T20:38:43.955Z,7.45
2019-06-26T20:41:10.007Z,8.80
2019-06-26T20:43:36.020Z,8.00
2019-06-26T20:46:02.061Z,10.00
2019-06-26T20:48:28.446Z,7.50
2019-06-26T20:50:54.555Z,7.95
2019-06-26T20:53:20.768Z,6.85
2019-06-26T20:55:46.835Z,7.12
2019-06-26T20:58:12.841Z,6.60
2019-06-26T21:00:38.893Z,8.23
2019-06-26T21:03:04.915Z,7.58
2019-06-26T21:05:31.113Z,8.03
2019-06-26T21:07:57.244Z,7.37
2019-06-26T21:10:23.435Z,10.88
2019-06-26T21:12:49.521Z,7.83
2019-06-26T21:15:15.675Z,8.15
2019-06-26T21:17:41.873Z,8.98
2019-06-26T21:20:08.321Z,9.75
2019-06-26T21:22:34.717Z,7.08
2019-06-26T21:25:13.722Z,7.12
2019-06-26T21:27:32.089Z,8.43
2019-06-26T21:29:56.756Z,7.53
2019-06-26T21:32:23.981Z,7.90
2019-06-26T21:34:50.003Z,10.63
2019-06-26T21:37:16.155Z,8.13
2019-06-26T21:39:42.179Z,7.35
2019-06-26T21:42:08.405Z,9.50
2019-06-26T21:44:34.420Z,7.17
2019-06-26T21:47:00.651Z,7.50
2019-06-26T21:49:26.668Z,7.10
2019-06-26T21:51:52.812Z,10.38
2019-06-26T21:54:28.994Z,9.35
2019-06-26T21:57:16.169Z,7.47
2019-06-26T22:00:00.803Z,7.85
2019-06-26T22:02:45.791Z,8.53
2019-06-26T22:05:14.308Z,7.08
2019-06-26T22:07:58.014Z,7.20
2019-06-26T22:10:31.818Z,8.15
2019-06-26T22:12:58.139Z,7.60
2019-06-26T22:15:24.382Z,7.28
2019-06-26T22:17:50.639Z,10.40
2019-06-26T22:20:17.745Z,6.83
2019-06-26T22:22:43.922Z,6.83
2019-06-26T22:25:10.394Z,7.03
2019-06-26T22:27:36.598Z,9.08
2019-06-26T22:30:05.558Z,7.80
2019-06-26T22:32:32.128Z,7.03
2019-06-26T22:34:58.538Z,6.28
2019-06-26T22:37:24.610Z,6.75
2019-06-26T22:39:50.979Z,6.70
2019-06-26T22:42:17.236Z,7.17
2019-06-26T22:44:43.727Z,7.30
2019-06-26T22:47:10.023Z,6.42
2019-06-26T22:49:36.298Z,6.55
2019-06-26T22:52:02.663Z,6.03
2019-06-26T22:54:28.755Z,6.28
2019-06-26T22:56:54.908Z,5.95
2019-06-26T22:59:20.983Z,5.80
2019-06-26T23:01:47.001Z,5.40
2019-06-26T23:04:13.228Z,5.87
2019-06-26T23:06:39.240Z,7.45
2019-06-26T23:09:05.889Z,5.17
2019-06-26T23:11:31.914Z,5.47
2019-06-26T23:13:57.962Z,5.70
2019-06-26T23:16:24.396Z,5.33
2019-06-26T23:18:50.436Z,5.22
2019-06-26T23:21:16.535Z,6.00
2019-06-26T23:23:42.596Z,6.37
2019-06-26T23:26:23.052Z,4.75
2019-06-26T23:28:36.565Z,4.80
2019-06-26T23:31:02.684Z,3.75
2019-06-26T23:33:28.738Z,4.90
2019-06-26T23:35:54.753Z,3.52
2019-06-26T23:38:20.798Z,4.83
2019-06-26T23:40:46.975Z,3.25
2019-06-26T23:43:13.022Z,4.00
2019-06-26T23:45:39.037Z,2.98
2019-06-26T23:48:05.187Z,3.10
2019-06-26T23:50:31.245Z,3.52
2019-06-26T23:52:57.294Z,2.98
2019-06-26T23:55:23.302Z,2.42
2019-06-26T23:57:59.126Z,2.92
